Time;durP1;ratioP1;P1;durP2;ratioP2;P2;SDS_P1;SDS_P2;PMS_P1;PMS_P2;Temp;Humidity;BMP_temperature;BMP_pressure;BME280_temperature;BME280_humidity;BME280_pressure;Samples;Min_cycle;Max_cycle;Signal;HPM_P1;HPM_P2
2022/03/25 00:01:37;;;;;;;12.32;10.13;;;;;;;;;;20229056;29;20068;-79
2022/03/25 00:11:44;;;;;;;11.63;10.02;;;;;;;;;;20225875;29;20131;-79
2022/03/25 00:21:48;;;;;;;12.13;10.27;;;;;;;;;;20232541;28;20072;-79
2022/03/25 00:31:56;;;;;;;13.30;11.02;;;;;;;;;;20240301;29;20056;-79
2022/03/25 00:42:00;;;;;;;11.05;9.95;;;;;;;;;;20236131;29;20076;-79
2022/03/25 00:52:11;;;;;;;12.57;10.13;;;;;;;;;;20236947;29;20096;-79
2022/03/25 01:02:24;;;;;;;11.18;9.80;;;;;;;;;;20255160;29;20044;-79
2022/03/25 01:12:41;;;;;;;10.75;9.52;;;;;;;;;;20259424;29;20104;-79
2022/03/25 01:22:49;;;;;;;9.70;8.70;;;;;;;;;;20271705;29;20060;-79
2022/03/25 01:32:54;;;;;;;8.88;7.97;;;;;;;;;;20302554;29;20048;-79
2022/03/25 01:43:01;;;;;;;9.30;8.18;;;;;;;;;;20333686;29;20044;-79
2022/03/25 01:53:27;;;;;;;7.95;7.03;;;;;;;;;;20318429;29;20434;-79
2022/03/25 02:03:46;;;;;;;8.38;7.40;;;;;;;;;;20332876;29;20048;-78
2022/03/25 02:14:24;;;;;;;7.38;6.68;;;;;;;;;;20302887;29;20052;-79
2022/03/25 02:24:33;;;;;;;7.07;6.38;;;;;;;;;;20312546;28;20076;-79
2022/03/25 02:34:38;;;;;;;7.15;6.43;;;;;;;;;;20312551;29;20048;-79
2022/03/25 02:44:49;;;;;;;6.88;6.15;;;;;;;;;;20312824;29;20116;-79
2022/03/25 02:54:59;;;;;;;6.38;5.68;;;;;;;;;;20313105;29;20092;-79
2022/03/25 03:05:07;;;;;;;7.03;5.60;;;;;;;;;;20311886;29;20059;-79
2022/03/25 03:15:17;;;;;;;6.50;5.85;;;;;;;;;;20296668;29;20462;-79
2022/03/25 03:25:28;;;;;;;6.85;6.15;;;;;;;;;;20310320;29;20489;-79
2022/03/25 03:35:37;;;;;;;6.10;5.50;;;;;;;;;;20309101;29;20096;-79
2022/03/25 03:45:41;;;;;;;5.97;5.38;;;;;;;;;;20309418;29;20095;-79
2022/03/25 03:55:53;;;;;;;6.25;5.60;;;;;;;;;;20336859;29;20054;-79
2022/03/25 04:06:03;;;;;;;6.53;5.82;;;;;;;;;;20309584;29;20071;-80
2022/03/25 04:16:21;;;;;;;5.65;5.05;;;;;;;;;;20309561;29;20410;-79
2022/03/25 04:26:26;;;;;;;5.90;5.30;;;;;;;;;;20322006;29;20056;-79
2022/03/25 04:36:36;;;;;;;5.15;4.65;;;;;;;;;;20307525;29;20092;-79
2022/03/25 04:46:47;;;;;;;5.78;5.18;;;;;;;;;;20307614;29;20423;-79
2022/03/25 04:56:57;;;;;;;5.57;5.05;;;;;;;;;;20321342;29;20058;-79
2022/03/25 05:07:01;;;;;;;;;;;;;;;;;;20320122;29;20079;-79
2022/03/25 05:17:15;;;;;;;4.80;4.30;;;;;;;;;;20285642;29;19971;-78
2022/03/25 05:27:25;;;;;;;4.88;4.47;;;;;;;;;;20204334;29;20056;-78
2022/03/25 05:37:51;;;;;;;5.00;4.50;;;;;;;;;;20199201;29;20064;-78
2022/03/25 05:48:10;;;;;;;5.03;4.53;;;;;;;;;;20225480;29;20135;-79
2022/03/25 05:58:14;;;;;;;4.53;4.13;;;;;;;;;;20253715;29;20051;-79
2022/03/25 06:08:23;;;;;;;4.82;4.32;;;;;;;;;;20237712;29;20064;-79
2022/03/25 06:18:30;;;;;;;3.70;3.40;;;;;;;;;;20251972;29;20048;-78
2022/03/25 06:28:39;;;;;;;3.55;3.25;;;;;;;;;;20236852;29;20119;-79
2022/03/25 06:38:45;;;;;;;2.83;2.63;;;;;;;;;;20250713;29;20055;-79
2022/03/25 06:48:54;;;;;;;3.13;2.83;;;;;;;;;;20220015;29;20052;-78
2022/03/25 06:59:06;;;;;;;2.63;2.43;;;;;;;;;;20249166;29;20052;-78
2022/03/25 07:09:25;;;;;;;3.03;2.70;;;;;;;;;;20219897;29;20041;-78
2022/03/25 07:19:36;;;;;;;3.30;3.00;;;;;;;;;;20248664;29;20056;-78
2022/03/25 07:29:54;;;;;;;4.80;3.40;;;;;;;;;;20232432;29;20049;-78
2022/03/25 07:40:09;;;;;;;6.20;4.00;;;;;;;;;;20218557;29;20052;-78
2022/03/25 07:50:18;;;;;;;5.22;4.30;;;;;;;;;;20217418;29;20088;-78
2022/03/25 08:00:31;;;;;;;6.20;5.15;;;;;;;;;;20246842;29;20061;-78
2022/03/25 08:10:42;;;;;;;6.57;4.82;;;;;;;;;;20216008;29;20163;-78
2022/03/25 08:20:55;;;;;;;5.55;4.90;;;;;;;;;;20216438;29;20056;-78
2022/03/25 08:31:10;;;;;;;8.25;5.85;;;;;;;;;;20231935;29;20491;-78
2022/03/25 08:41:19;;;;;;;8.15;5.88;;;;;;;;;;20238465;29;20044;-78
2022/03/25 08:51:31;;;;;;;7.68;5.47;;;;;;;;;;20230835;29;20100;-78
2022/03/25 09:01:39;;;;;;;7.13;5.50;;;;;;;;;;20244934;29;20075;-78
2022/03/25 09:11:47;;;;;;;9.13;6.38;;;;;;;;;;20241939;29;20071;-78
2022/03/25 09:22:31;;;;;;;;;;;;;;;;;;20246747;29;20061;-78
2022/03/25 09:32:37;;;;;;;8.50;6.23;;;;;;;;;;20256215;29;19927;-78
2022/03/25 09:42:51;;;;;;;8.07;6.38;;;;;;;;;;20240042;29;20044;-78
2022/03/25 09:53:11;;;;;;;9.73;7.05;;;;;;;;;;20245845;29;20040;-78
2022/03/25 10:03:44;;;;;;;8.05;6.80;;;;;;;;;;20253435;29;20412;-78
2022/03/25 10:14:15;;;;;;;8.98;6.93;;;;;;;;;;20250154;29;20043;-78
2022/03/25 10:24:42;;;;;;;8.30;6.82;;;;;;;;;;20265588;29;20041;-79
2022/03/25 10:35:10;;;;;;;10.65;7.28;;;;;;;;;;20231400;29;20041;-79
2022/03/25 10:45:27;;;;;;;9.98;7.32;;;;;;;;;;20215124;29;20056;-79
2022/03/25 10:55:32;;;;;;;9.50;7.13;;;;;;;;;;20233772;29;20063;-79
2022/03/25 11:05:40;;;;;;;9.80;7.35;;;;;;;;;;20219199;29;20400;-79
2022/03/25 11:15:55;;;;;;;10.27;7.72;;;;;;;;;;20248078;29;20051;-79
2022/03/25 11:26:07;;;;;;;10.70;8.23;;;;;;;;;;20234027;29;20056;-78
2022/03/25 11:36:19;;;;;;;10.60;8.43;;;;;;;;;;20236353;29;20476;-78
2022/03/25 11:46:24;;;;;;;11.55;7.97;;;;;;;;;;20232703;29;20051;-78
2022/03/25 11:56:46;;;;;;;10.77;8.45;;;;;;;;;;20231980;29;20057;-78
2022/03/25 12:07:23;;;;;;;9.95;7.43;;;;;;;;;;20246968;29;20049;-79
2022/03/25 12:17:43;;;;;;;10.38;7.72;;;;;;;;;;20227079;29;20402;-79
2022/03/25 12:27:55;;;;;;;10.80;8.13;;;;;;;;;;20262903;29;20057;-79
2022/03/25 12:38:19;;;;;;;11.85;8.25;;;;;;;;;;20260066;29;20056;-78
2022/03/25 12:48:28;;;;;;;11.23;8.20;;;;;;;;;;20259659;29;20059;-78
2022/03/25 12:58:46;;;;;;;11.32;8.57;;;;;;;;;;20241039;29;20045;-78
2022/03/25 13:09:00;;;;;;;13.65;8.75;;;;;;;;;;20228527;29;20040;-78
2022/03/25 13:19:14;;;;;;;12.07;8.32;;;;;;;;;;20243158;29;20048;-78
2022/03/25 13:29:38;;;;;;;14.33;8.80;;;;;;;;;;20242838;29;20061;-78
2022/03/25 13:39:50;;;;;;;12.48;7.70;;;;;;;;;;20241027;29;20079;-78
2022/03/25 13:50:16;;;;;;;10.02;6.57;;;;;;;;;;20224953;29;20052;-79
2022/03/25 14:00:29;;;;;;;9.57;6.22;;;;;;;;;;20253507;29;20064;-78
2022/03/25 14:10:36;;;;;;;8.75;6.22;;;;;;;;;;20237650;29;20057;-79
2022/03/25 14:20:47;;;;;;;7.90;5.63;;;;;;;;;;20237728;29;20060;-78
2022/03/25 14:31:04;;;;;;;8.80;5.07;;;;;;;;;;20236157;29;20121;-78
2022/03/25 14:41:10;;;;;;;8.43;5.13;;;;;;;;;;20234841;29;20104;-78
2022/03/25 14:51:27;;;;;;;8.52;5.25;;;;;;;;;;20252361;29;20052;-78
2022/03/25 15:01:32;;;;;;;7.68;5.60;;;;;;;;;;20233585;29;20060;-78
2022/03/25 15:11:42;;;;;;;10.05;5.88;;;;;;;;;;20218918;29;20055;-78
2022/03/25 15:21:58;;;;;;;8.60;5.68;;;;;;;;;;20234889;29;20063;-78
2022/03/25 15:43:14;;;;;;;8.52;5.53;;;;;;;;;;20233468;29;20065;-78
2022/03/25 15:53:27;;;;;;;9.32;6.55;;;;;;;;;;20257946;29;20045;-78
2022/03/25 16:03:32;;;;;;;9.45;6.95;;;;;;;;;;20241822;29;20167;-78
2022/03/25 16:13:43;;;;;;;9.82;6.68;;;;;;;;;;20258169;29;20130;-79
2022/03/25 16:24:05;;;;;;;9.13;6.22;;;;;;;;;;20243480;28;20056;-78
2022/03/25 16:34:26;;;;;;;11.80;7.30;;;;;;;;;;20271863;29;20116;-78
2022/03/25 16:44:36;;;;;;;9.93;6.60;;;;;;;;;;20255162;29;20053;-78
2022/03/25 16:54:40;;;;;;;10.13;6.93;;;;;;;;;;20225254;29;20518;-78
2022/03/25 17:04:48;;;;;;;10.10;6.15;;;;;;;;;;20226970;29;20139;-79
2022/03/25 17:15:19;;;;;;;9.50;6.18;;;;;;;;;;20168772;29;20591;-79
2022/03/25 17:25:27;;;;;;;9.98;6.18;;;;;;;;;;20180682;29;20136;-79
2022/03/25 17:35:38;;;;;;;7.72;5.05;;;;;;;;;;20147453;29;20064;-78
2022/03/25 17:45:54;;;;;;;6.28;4.90;;;;;;;;;;20177188;29;20060;-79
2022/03/25 17:56:32;;;;;;;6.82;5.00;;;;;;;;;;20161513;29;20069;-78
2022/03/25 18:06:48;;;;;;;6.63;4.30;;;;;;;;;;20161114;29;20045;-79
2022/03/25 18:16:57;;;;;;;5.57;4.13;;;;;;;;;;20190314;29;20045;-79
2022/03/25 18:27:15;;;;;;;7.67;5.00;;;;;;;;;;20190131;29;20074;-79
2022/03/25 18:37:44;;;;;;;7.13;4.18;;;;;;;;;;20158150;29;20045;-78
2022/03/25 18:48:13;;;;;;;7.28;4.47;;;;;;;;;;20207460;29;20113;-79
2022/03/25 18:58:20;;;;;;;5.95;4.22;;;;;;;;;;20251878;29;20522;-79
2022/03/25 19:08:34;;;;;;;5.93;4.13;;;;;;;;;;20250052;29;20402;-79
2022/03/25 19:18:46;;;;;;;7.85;4.97;;;;;;;;;;20220708;29;20063;-79
2022/03/25 19:29:11;;;;;;;;;;;;;;;;;;20221239;29;20570;-79
2022/03/25 19:39:28;;;;;;;5.70;3.83;;;;;;;;;;20232714;29;20025;-80
2022/03/25 19:49:35;;;;;;;7.00;4.40;;;;;;;;;;20246698;29;20057;-79
2022/03/25 19:59:50;;;;;;;6.70;4.47;;;;;;;;;;20246628;29;20143;-79
2022/03/25 20:10:05;;;;;;;5.53;4.38;;;;;;;;;;20230879;29;20076;-79
2022/03/25 20:20:21;;;;;;;7.97;4.35;;;;;;;;;;20231644;29;20048;-79
2022/03/25 20:30:31;;;;;;;6.65;4.50;;;;;;;;;;20229815;29;20084;-79
2022/03/25 20:40:53;;;;;;;6.63;4.80;;;;;;;;;;20248101;29;20506;-80
2022/03/25 20:51:29;;;;;;;5.85;4.45;;;;;;;;;;20244708;29;20112;-79
2022/03/25 21:01:49;;;;;;;6.57;4.50;;;;;;;;;;20258867;29;20048;-79
2022/03/25 21:12:09;;;;;;;7.38;5.35;;;;;;;;;;20261773;29;20057;-79
2022/03/25 21:22:38;;;;;;;5.13;4.25;;;;;;;;;;20228609;29;20052;-79
2022/03/25 21:32:54;;;;;;;6.10;4.82;;;;;;;;;;20226109;29;20056;-79
2022/03/25 21:43:07;;;;;;;5.30;4.18;;;;;;;;;;20253902;29;20056;-78
2022/03/25 21:53:25;;;;;;;6.35;4.93;;;;;;;;;;20239601;29;20060;-78
2022/03/25 22:03:42;;;;;;;5.47;4.18;;;;;;;;;;20240724;29;20067;-78
2022/03/25 22:26:02;;;;;;;5.57;4.30;;;;;;;;;;20228779;29;20055;-78
2022/03/25 22:36:12;;;;;;;4.75;4.18;;;;;;;;;;20252206;29;20052;-78
2022/03/25 22:46:28;;;;;;;5.95;4.10;;;;;;;;;;20234773;29;20056;-78
2022/03/25 22:56:48;;;;;;;5.72;4.15;;;;;;;;;;20233523;29;20059;-78
2022/03/25 23:07:19;;;;;;;6.72;4.65;;;;;;;;;;20072554;29;20519;-78
2022/03/25 23:17:25;;;;;;;6.72;4.55;;;;;;;;;;20073124;29;20577;-78
2022/03/25 23:27:34;;;;;;;6.50;4.72;;;;;;;;;;20070717;29;20057;-78
2022/03/25 23:37:42;;;;;;;5.95;4.43;;;;;;;;;;20056079;29;20513;-78
2022/03/25 23:47:52;;;;;;;6.63;4.93;;;;;;;;;;20070237;29;20125;-78
2022/03/25 23:58:00;;;;;;;5.47;4.50;;;;;;;;;;20238803;29;20056;-78
